sensor_id;sensor_type;location;lat;lon;timestamp;pressure;altitude;pressure_sealevel;temperature;humidity
67457;BME280;54319;52.038;4.640;2022-12-29T00:01:58;99990.69;;;9.96;86.54
67457;BME280;54319;52.038;4.640;2022-12-29T00:04:25;99989.47;;;10.11;86.20
67457;BME280;54319;52.038;4.640;2022-12-29T00:06:52;100002.72;;;10.07;86.21
67457;BME280;54319;52.038;4.640;2022-12-29T00:09:19;99956.41;;;9.89;86.22
67457;BME280;54319;52.038;4.640;2022-12-29T00:11:47;99901.31;;;9.56;85.51
67457;BME280;54319;52.038;4.640;2022-12-29T00:14:15;99977.75;;;10.10;85.88
67457;BME280;54319;52.038;4.640;2022-12-29T00:17:02;99957.69;;;10.05;85.28
67457;BME280;54319;52.038;4.640;2022-12-29T00:19:29;99932.44;;;9.97;85.60
67457;BME280;54319;52.038;4.640;2022-12-29T00:22:14;99952.41;;;10.22;85.17
67457;BME280;54319;52.038;4.640;2022-12-29T00:24:59;99945.06;;;10.22;85.01
67457;BME280;54319;52.038;4.640;2022-12-29T00:27:43;99944.84;;;10.24;84.88
67457;BME280;54319;52.038;4.640;2022-12-29T00:30:28;99954.47;;;10.26;84.56
67457;BME280;54319;52.038;4.640;2022-12-29T00:33:16;99943.56;;;10.26;84.40
67457;BME280;54319;52.038;4.640;2022-12-29T00:36:01;99949.00;;;10.26;84.56
67457;BME280;54319;52.038;4.640;2022-12-29T00:38:35;99943.09;;;10.30;84.33
67457;BME280;54319;52.038;4.640;2022-12-29T00:41:20;99864.41;;;9.91;84.46
67457;BME280;54319;52.038;4.640;2022-12-29T00:44:05;99934.31;;;10.27;85.03
67457;BME280;54319;52.038;4.640;2022-12-29T00:46:32;99939.28;;;10.31;84.66
67457;BME280;54319;52.038;4.640;2022-12-29T00:49:01;99937.63;;;10.30;85.51
67457;BME280;54319;52.038;4.640;2022-12-29T00:51:45;99947.34;;;10.25;86.09
67457;BME280;54319;52.038;4.640;2022-12-29T00:54:14;99946.97;;;10.22;86.18
67457;BME280;54319;52.038;4.640;2022-12-29T00:56:41;99918.09;;;10.02;86.95
67457;BME280;54319;52.038;4.640;2022-12-29T00:59:10;99949.28;;;10.06;87.52
67457;BME280;54319;52.038;4.640;2022-12-29T01:01:37;99930.56;;;10.10;87.62
67457;BME280;54319;52.038;4.640;2022-12-29T01:04:07;99913.09;;;9.87;87.94
67457;BME280;54319;52.038;4.640;2022-12-29T01:06:39;99930.75;;;9.96;88.34
67457;BME280;54319;52.038;4.640;2022-12-29T01:09:07;99929.69;;;9.97;88.78
67457;BME280;54319;52.038;4.640;2022-12-29T01:11:52;99919.44;;;9.81;89.00
67457;BME280;54319;52.038;4.640;2022-12-29T01:14:20;99934.75;;;9.94;89.19
67457;BME280;54319;52.038;4.640;2022-12-29T01:16:48;99940.75;;;9.84;89.65
67457;BME280;54319;52.038;4.640;2022-12-29T01:19:17;99933.22;;;9.86;89.83
67457;BME280;54319;52.038;4.640;2022-12-29T01:21:45;99948.94;;;9.84;89.67
67457;BME280;54319;52.038;4.640;2022-12-29T01:24:13;99944.53;;;9.83;89.32
67457;BME280;54319;52.038;4.640;2022-12-29T01:26:39;99952.72;;;9.83;89.56
67457;BME280;54319;52.038;4.640;2022-12-29T01:29:07;99951.81;;;9.89;89.09
67457;BME280;54319;52.038;4.640;2022-12-29T01:31:33;99943.06;;;9.87;89.48
67457;BME280;54319;52.038;4.640;2022-12-29T01:34:01;99949.91;;;9.90;89.05
67457;BME280;54319;52.038;4.640;2022-12-29T01:36:31;99945.78;;;9.87;88.88
67457;BME280;54319;52.038;4.640;2022-12-29T01:38:58;99958.34;;;9.88;89.12
67457;BME280;54319;52.038;4.640;2022-12-29T01:41:25;99929.25;;;9.82;89.25
67457;BME280;54319;52.038;4.640;2022-12-29T01:43:55;99951.22;;;9.87;89.12
67457;BME280;54319;52.038;4.640;2022-12-29T01:46:26;99929.19;;;9.89;88.91
67457;BME280;54319;52.038;4.640;2022-12-29T01:48:59;99927.75;;;9.86;88.79
67457;BME280;54319;52.038;4.640;2022-12-29T01:51:31;99928.66;;;9.80;88.78
67457;BME280;54319;52.038;4.640;2022-12-29T01:54:02;99927.00;;;9.79;88.63
67457;BME280;54319;52.038;4.640;2022-12-29T01:56:33;99933.97;;;9.75;88.50
67457;BME280;54319;52.038;4.640;2022-12-29T01:59:05;99940.88;;;9.77;87.87
67457;BME280;54319;52.038;4.640;2022-12-29T02:01:32;99950.09;;;9.76;87.79
67457;BME280;54319;52.038;4.640;2022-12-29T02:04:00;99942.13;;;9.75;87.59
67457;BME280;54319;52.038;4.640;2022-12-29T02:06:29;99943.81;;;9.76;87.20
67457;BME280;54319;52.038;4.640;2022-12-29T02:09:00;99955.09;;;9.79;86.78
67457;BME280;54319;52.038;4.640;2022-12-29T02:11:28;99958.03;;;9.78;86.42
67457;BME280;54319;52.038;4.640;2022-12-29T02:13:56;99955.44;;;9.83;86.06
67457;BME280;54319;52.038;4.640;2022-12-29T02:16:35;99941.22;;;9.81;86.12
67457;BME280;54319;52.038;4.640;2022-12-29T02:19:27;99950.38;;;9.87;85.38
67457;BME280;54319;52.038;4.640;2022-12-29T02:22:12;99930.25;;;9.88;85.66
67457;BME280;54319;52.038;4.640;2022-12-29T02:25:07;99925.03;;;9.86;85.35
67457;BME280;54319;52.038;4.640;2022-12-29T02:27:51;99928.84;;;9.85;85.37
67457;BME280;54319;52.038;4.640;2022-12-29T02:30:43;99942.44;;;9.85;85.00
67457;BME280;54319;52.038;4.640;2022-12-29T02:33:21;99937.81;;;9.85;84.47
67457;BME280;54319;52.038;4.640;2022-12-29T02:35:56;99935.22;;;9.91;83.95
67457;BME280;54319;52.038;4.640;2022-12-29T02:38:40;99936.06;;;9.91;84.02
67457;BME280;54319;52.038;4.640;2022-12-29T02:41:16;99893.56;;;9.72;83.83
67457;BME280;54319;52.038;4.640;2022-12-29T02:43:49;99926.09;;;9.85;83.50
67457;BME280;54319;52.038;4.640;2022-12-29T02:46:22;99878.91;;;9.73;83.23
67457;BME280;54319;52.038;4.640;2022-12-29T02:49:01;99947.56;;;9.93;82.23
67457;BME280;54319;52.038;4.640;2022-12-29T02:51:34;99952.63;;;10.08;81.21
67457;BME280;54319;52.038;4.640;2022-12-29T02:54:03;99945.13;;;10.04;81.20
67457;BME280;54319;52.038;4.640;2022-12-29T02:56:47;99925.91;;;9.98;80.60
67457;BME280;54319;52.038;4.640;2022-12-29T02:59:16;99943.53;;;9.96;81.02
67457;BME280;54319;52.038;4.640;2022-12-29T03:02:00;99938.56;;;9.93;80.31
67457;BME280;54319;52.038;4.640;2022-12-29T03:04:54;99938.88;;;9.84;80.68
67457;BME280;54319;52.038;4.640;2022-12-29T03:07:33;99955.59;;;9.88;79.75
67457;BME280;54319;52.038;4.640;2022-12-29T03:10:11;99946.97;;;9.91;79.49
67457;BME280;54319;52.038;4.640;2022-12-29T03:12:47;99947.09;;;9.96;79.19
67457;BME280;54319;52.038;4.640;2022-12-29T03:15:37;99927.13;;;9.84;79.81
67457;BME280;54319;52.038;4.640;2022-12-29T03:18:36;99929.50;;;9.80;80.19
67457;BME280;54319;52.038;4.640;2022-12-29T03:21:07;99917.22;;;9.90;79.77
67457;BME280;54319;52.038;4.640;2022-12-29T03:23:37;99936.88;;;9.92;79.77
67457;BME280;54319;52.038;4.640;2022-12-29T03:26:09;99847.94;;;9.36;80.36
67457;BME280;54319;52.038;4.640;2022-12-29T03:28:40;99878.34;;;9.52;80.25
67457;BME280;54319;52.038;4.640;2022-12-29T03:31:10;99920.88;;;9.83;80.36
67457;BME280;54319;52.038;4.640;2022-12-29T03:33:41;99876.44;;;9.52;80.47
67457;BME280;54319;52.038;4.640;2022-12-29T03:36:12;99927.47;;;9.76;80.63
67457;BME280;54319;52.038;4.640;2022-12-29T03:38:45;99923.22;;;9.80;80.42
67457;BME280;54319;52.038;4.640;2022-12-29T03:41:16;99924.53;;;9.77;80.56
67457;BME280;54319;52.038;4.640;2022-12-29T03:43:44;99923.69;;;9.77;80.64
67457;BME280;54319;52.038;4.640;2022-12-29T03:46:11;99880.97;;;9.59;80.75
67457;BME280;54319;52.038;4.640;2022-12-29T03:48:40;99918.59;;;9.80;80.79
67457;BME280;54319;52.038;4.640;2022-12-29T03:51:07;99926.66;;;9.75;80.96
67457;BME280;54319;52.038;4.640;2022-12-29T03:53:34;99912.03;;;9.69;80.89
67457;BME280;54319;52.038;4.640;2022-12-29T03:56:02;99941.78;;;9.71;81.17
67457;BME280;54319;52.038;4.640;2022-12-29T03:58:30;99935.63;;;9.76;80.95
67457;BME280;54319;52.038;4.640;2022-12-29T04:00:56;99926.72;;;9.68;81.26
67457;BME280;54319;52.038;4.640;2022-12-29T04:03:23;99930.06;;;9.52;81.61
67457;BME280;54319;52.038;4.640;2022-12-29T04:05:51;99931.75;;;9.53;81.64
67457;BME280;54319;52.038;4.640;2022-12-29T04:08:19;99946.56;;;9.57;80.05
67457;BME280;54319;52.038;4.640;2022-12-29T04:10:47;99944.44;;;9.59;78.88
67457;BME280;54319;52.038;4.640;2022-12-29T04:13:15;99945.03;;;9.61;78.37
67457;BME280;54319;52.038;4.640;2022-12-29T04:15:42;99957.59;;;9.62;78.18
67457;BME280;54319;52.038;4.640;2022-12-29T04:18:10;99957.13;;;9.65;77.73
67457;BME280;54319;52.038;4.640;2022-12-29T04:20:37;99940.41;;;9.62;78.50
67457;BME280;54319;52.038;4.640;2022-12-29T04:23:23;99937.94;;;9.60;78.69
67457;BME280;54319;52.038;4.640;2022-12-29T04:25:50;99933.53;;;9.59;78.94
67457;BME280;54319;52.038;4.640;2022-12-29T04:28:18;99954.13;;;9.55;78.76
67457;BME280;54319;52.038;4.640;2022-12-29T04:30:45;99901.72;;;9.22;79.44
67457;BME280;54319;52.038;4.640;2022-12-29T04:33:13;99934.13;;;9.43;79.71
67457;BME280;54319;52.038;4.640;2022-12-29T04:35:39;99946.78;;;9.37;80.20
67457;BME280;54319;52.038;4.640;2022-12-29T04:38:08;99943.53;;;9.28;80.53
67457;BME280;54319;52.038;4.640;2022-12-29T04:40:39;99955.47;;;9.27;80.90
67457;BME280;54319;52.038;4.640;2022-12-29T04:43:06;99932.91;;;9.01;81.41
67457;BME280;54319;52.038;4.640;2022-12-29T04:45:33;99872.28;;;8.75;81.70
67457;BME280;54319;52.038;4.640;2022-12-29T04:48:01;99960.00;;;9.15;82.57
67457;BME280;54319;52.038;4.640;2022-12-29T04:50:28;99949.94;;;9.15;82.50
67457;BME280;54319;52.038;4.640;2022-12-29T04:52:55;99952.19;;;9.18;82.59
67457;BME280;54319;52.038;4.640;2022-12-29T04:55:23;99952.91;;;9.14;82.74
67457;BME280;54319;52.038;4.640;2022-12-29T04:57:52;99974.88;;;9.12;82.77
67457;BME280;54319;52.038;4.640;2022-12-29T05:00:19;99964.59;;;9.14;83.26
67457;BME280;54319;52.038;4.640;2022-12-29T05:02:49;99969.88;;;9.09;83.92
67457;BME280;54319;52.038;4.640;2022-12-29T05:05:17;99968.44;;;9.06;84.32
67457;BME280;54319;52.038;4.640;2022-12-29T05:07:44;99972.50;;;8.97;85.21
67457;BME280;54319;52.038;4.640;2022-12-29T05:10:11;99973.44;;;8.84;85.99
67457;BME280;54319;52.038;4.640;2022-12-29T05:12:39;99937.47;;;8.57;86.71
67457;BME280;54319;52.038;4.640;2022-12-29T05:15:09;99995.47;;;8.76;86.80
67457;BME280;54319;52.038;4.640;2022-12-29T05:17:36;99980.44;;;8.73;87.36
67457;BME280;54319;52.038;4.640;2022-12-29T05:20:06;99977.59;;;8.61;87.25
67457;BME280;54319;52.038;4.640;2022-12-29T05:22:34;99985.69;;;8.68;87.64
67457;BME280;54319;52.038;4.640;2022-12-29T05:25:01;100000.78;;;8.64;88.05
67457;BME280;54319;52.038;4.640;2022-12-29T05:27:28;99999.97;;;8.63;87.96
67457;BME280;54319;52.038;4.640;2022-12-29T05:29:55;99997.09;;;8.58;87.92
67457;BME280;54319;52.038;4.640;2022-12-29T05:32:27;99988.53;;;8.54;87.51
67457;BME280;54319;52.038;4.640;2022-12-29T05:34:53;99984.13;;;8.53;87.55
67457;BME280;54319;52.038;4.640;2022-12-29T05:37:21;99991.84;;;8.57;86.82
67457;BME280;54319;52.038;4.640;2022-12-29T05:39:50;99987.63;;;8.61;86.57
67457;BME280;54319;52.038;4.640;2022-12-29T05:42:18;99994.75;;;8.62;86.53
67457;BME280;54319;52.038;4.640;2022-12-29T05:44:44;99984.09;;;8.60;85.50
67457;BME280;54319;52.038;4.640;2022-12-29T05:47:15;100003.47;;;8.71;85.54
67457;BME280;54319;52.038;4.640;2022-12-29T05:49:43;99999.28;;;8.68;85.84
67457;BME280;54319;52.038;4.640;2022-12-29T05:52:10;99998.84;;;8.71;85.53
67457;BME280;54319;52.038;4.640;2022-12-29T05:54:36;100005.84;;;8.60;85.80
67457;BME280;54319;52.038;4.640;2022-12-29T05:57:04;100009.13;;;8.69;85.81
67457;BME280;54319;52.038;4.640;2022-12-29T05:59:30;100011.84;;;8.69;86.11
67457;BME280;54319;52.038;4.640;2022-12-29T06:01:58;100019.44;;;8.60;86.85
67457;BME280;54319;52.038;4.640;2022-12-29T06:04:24;100008.66;;;8.40;87.67
67457;BME280;54319;52.038;4.640;2022-12-29T06:06:53;100028.31;;;8.42;87.78
67457;BME280;54319;52.038;4.640;2022-12-29T06:09:20;99988.56;;;8.09;88.30
67457;BME280;54319;52.038;4.640;2022-12-29T06:11:50;100031.66;;;8.37;88.04
67457;BME280;54319;52.038;4.640;2022-12-29T06:14:16;100025.41;;;8.37;87.26
67457;BME280;54319;52.038;4.640;2022-12-29T06:16:44;100032.69;;;8.43;85.93
67457;BME280;54319;52.038;4.640;2022-12-29T06:19:12;100028.91;;;8.44;86.02
67457;BME280;54319;52.038;4.640;2022-12-29T06:21:39;99996.19;;;8.25;85.97
67457;BME280;54319;52.038;4.640;2022-12-29T06:24:07;100018.25;;;8.49;85.11
67457;BME280;54319;52.038;4.640;2022-12-29T06:26:37;100017.59;;;8.47;85.39
67457;BME280;54319;52.038;4.640;2022-12-29T06:29:05;99989.06;;;8.31;84.78
67457;BME280;54319;52.038;4.640;2022-12-29T06:31:32;100024.53;;;8.43;84.62
67457;BME280;54319;52.038;4.640;2022-12-29T06:33:59;100039.78;;;8.44;84.22
67457;BME280;54319;52.038;4.640;2022-12-29T06:36:26;100030.16;;;8.48;83.17
67457;BME280;54319;52.038;4.640;2022-12-29T06:38:53;100030.34;;;8.47;83.06
67457;BME280;54319;52.038;4.640;2022-12-29T06:41:21;99999.09;;;8.31;82.98
67457;BME280;54319;52.038;4.640;2022-12-29T06:43:51;100009.00;;;8.57;81.17
67457;BME280;54319;52.038;4.640;2022-12-29T06:46:18;100020.75;;;8.51;81.87
67457;BME280;54319;52.038;4.640;2022-12-29T06:48:45;100015.88;;;8.60;81.09
67457;BME280;54319;52.038;4.640;2022-12-29T06:51:12;100015.88;;;8.60;80.71
67457;BME280;54319;52.038;4.640;2022-12-29T06:53:39;100027.03;;;8.51;81.51
67457;BME280;54319;52.038;4.640;2022-12-29T06:56:06;100015.50;;;8.56;79.90
67457;BME280;54319;52.038;4.640;2022-12-29T06:58:37;100014.47;;;8.50;80.76
67457;BME280;54319;52.038;4.640;2022-12-29T07:01:10;100037.69;;;8.46;80.85
67457;BME280;54319;52.038;4.640;2022-12-29T07:03:37;100026.66;;;8.41;80.45
67457;BME280;54319;52.038;4.640;2022-12-29T07:06:05;100009.16;;;8.23;80.79
67457;BME280;54319;52.038;4.640;2022-12-29T07:08:33;100025.41;;;8.37;80.89
67457;BME280;54319;52.038;4.640;2022-12-29T07:11:00;100030.84;;;8.37;81.27
67457;BME280;54319;52.038;4.640;2022-12-29T07:13:27;100032.69;;;8.43;80.75
67457;BME280;54319;52.038;4.640;2022-12-29T07:15:57;100046.31;;;8.36;81.01
67457;BME280;54319;52.038;4.640;2022-12-29T07:18:24;100042.94;;;8.41;81.44
67457;BME280;54319;52.038;4.640;2022-12-29T07:20:51;100059.69;;;8.38;81.83
67457;BME280;54319;52.038;4.640;2022-12-29T07:23:18;100016.78;;;8.08;82.29
67457;BME280;54319;52.038;4.640;2022-12-29T07:25:45;100060.34;;;8.26;83.03
67457;BME280;54319;52.038;4.640;2022-12-29T07:28:12;100057.00;;;8.31;83.07
67457;BME280;54319;52.038;4.640;2022-12-29T07:30:39;100060.34;;;8.33;83.09
67457;BME280;54319;52.038;4.640;2022-12-29T07:33:07;100011.72;;;8.11;82.81
67457;BME280;54319;52.038;4.640;2022-12-29T07:35:34;100058.03;;;8.37;83.31
67457;BME280;54319;52.038;4.640;2022-12-29T07:38:04;100036.91;;;8.39;82.80
67457;BME280;54319;52.038;4.640;2022-12-29T07:40:31;100034.63;;;8.36;82.71
67457;BME280;54319;52.038;4.640;2022-12-29T07:42:58;100011.00;;;8.30;82.48
67457;BME280;54319;52.038;4.640;2022-12-29T07:45:25;100052.53;;;8.50;82.56
67457;BME280;54319;52.038;4.640;2022-12-29T07:47:52;100052.94;;;8.54;82.43
67457;BME280;54319;52.038;4.640;2022-12-29T07:50:20;100013.66;;;8.43;80.93
67457;BME280;54319;52.038;4.640;2022-12-29T07:52:47;100048.06;;;8.63;81.42
67457;BME280;54319;52.038;4.640;2022-12-29T07:55:14;100040.06;;;8.68;80.67
67457;BME280;54319;52.038;4.640;2022-12-29T07:57:41;100032.78;;;8.68;80.23
67457;BME280;54319;52.038;4.640;2022-12-29T08:00:10;100035.50;;;8.68;79.90
67457;BME280;54319;52.038;4.640;2022-12-29T08:02:39;100059.31;;;8.73;79.93
67457;BME280;54319;52.038;4.640;2022-12-29T08:05:07;100043.25;;;8.65;80.28
67457;BME280;54319;52.038;4.640;2022-12-29T08:07:36;100041.94;;;8.74;80.19
67457;BME280;54319;52.038;4.640;2022-12-29T08:10:03;100055.09;;;8.77;79.93
67457;BME280;54319;52.038;4.640;2022-12-29T08:12:31;100045.88;;;8.78;79.59
67457;BME280;54319;52.038;4.640;2022-12-29T08:14:58;100027.31;;;8.68;80.54
67457;BME280;54319;52.038;4.640;2022-12-29T08:17:25;100067.25;;;8.68;81.33
67457;BME280;54319;52.038;4.640;2022-12-29T08:19:52;100057.69;;;8.65;81.91
67457;BME280;54319;52.038;4.640;2022-12-29T08:22:19;100058.16;;;8.56;81.95
67457;BME280;54319;52.038;4.640;2022-12-29T08:24:47;100063.38;;;8.57;81.88
67457;BME280;54319;52.038;4.640;2022-12-29T08:27:14;99970.00;;;7.99;81.85
67457;BME280;54319;52.038;4.640;2022-12-29T08:29:41;100056.94;;;8.51;82.50
67457;BME280;54319;52.038;4.640;2022-12-29T08:32:08;100051.69;;;8.50;83.20
67457;BME280;54319;52.038;4.640;2022-12-29T08:34:35;100061.09;;;8.47;83.45
67457;BME280;54319;52.038;4.640;2022-12-29T08:37:05;100056.31;;;8.49;83.50
67457;BME280;54319;52.038;4.640;2022-12-29T08:39:32;100034.19;;;8.39;83.39
67457;BME280;54319;52.038;4.640;2022-12-29T08:42:01;100078.88;;;8.50;83.38
67457;BME280;54319;52.038;4.640;2022-12-29T08:44:27;100079.72;;;8.50;83.77
67457;BME280;54319;52.038;4.640;2022-12-29T08:46:55;100056.78;;;8.33;83.63
67457;BME280;54319;52.038;4.640;2022-12-29T08:49:23;100084.72;;;8.47;84.29
67457;BME280;54319;52.038;4.640;2022-12-29T08:51:50;100106.06;;;8.43;84.98
67457;BME280;54319;52.038;4.640;2022-12-29T08:54:17;100088.22;;;8.15;86.19
67457;BME280;54319;52.038;4.640;2022-12-29T08:56:45;100114.34;;;8.16;86.91
67457;BME280;54319;52.038;4.640;2022-12-29T08:59:13;100111.63;;;8.16;87.24
67457;BME280;54319;52.038;4.640;2022-12-29T09:01:40;100120.19;;;8.13;87.92
67457;BME280;54319;52.038;4.640;2022-12-29T09:04:07;100130.69;;;8.03;88.80
67457;BME280;54319;52.038;4.640;2022-12-29T09:06:34;100116.69;;;7.99;88.85
67457;BME280;54319;52.038;4.640;2022-12-29T09:09:01;100119.63;;;7.97;88.09
67457;BME280;54319;52.038;4.640;2022-12-29T09:11:28;100152.78;;;8.13;87.39
67457;BME280;54319;52.038;4.640;2022-12-29T09:13:56;100141.28;;;8.18;87.77
67457;BME280;54319;52.038;4.640;2022-12-29T09:16:24;100161.38;;;8.10;88.55
67457;BME280;54319;52.038;4.640;2022-12-29T09:18:52;100156.56;;;8.05;88.94
67457;BME280;54319;52.038;4.640;2022-12-29T09:21:19;100175.19;;;8.02;89.47
67457;BME280;54319;52.038;4.640;2022-12-29T09:23:47;100148.44;;;7.99;89.29
67457;BME280;54319;52.038;4.640;2022-12-29T09:26:13;100154.69;;;8.06;89.68
67457;BME280;54319;52.038;4.640;2022-12-29T09:28:41;100178.09;;;8.07;89.65
67457;BME280;54319;52.038;4.640;2022-12-29T09:31:09;100154.94;;;7.84;89.90
67457;BME280;54319;52.038;4.640;2022-12-29T09:33:39;100175.00;;;7.96;89.69
67457;BME280;54319;52.038;4.640;2022-12-29T09:36:06;100181.88;;;8.06;90.08
67457;BME280;54319;52.038;4.640;2022-12-29T09:38:33;100185.81;;;8.10;90.08
67457;BME280;54319;52.038;4.640;2022-12-29T09:41:05;100197.50;;;8.10;89.86
67457;BME280;54319;52.038;4.640;2022-12-29T09:43:55;100199.81;;;8.14;90.04
67457;BME280;54319;52.038;4.640;2022-12-29T09:46:28;100208.38;;;8.17;90.07
67457;BME280;54319;52.038;4.640;2022-12-29T09:49:24;100193.97;;;8.10;89.89
67457;BME280;54319;52.038;4.640;2022-12-29T09:51:56;100089.41;;;7.47;89.87
67457;BME280;54319;52.038;4.640;2022-12-29T09:54:41;100220.91;;;8.25;89.91
67457;BME280;54319;52.038;4.640;2022-12-29T09:57:23;100078.56;;;7.33;89.86
67457;BME280;54319;52.038;4.640;2022-12-29T09:59:54;100242.41;;;8.33;89.84
67457;BME280;54319;52.038;4.640;2022-12-29T10:02:36;100239.06;;;8.38;89.42
67457;BME280;54319;52.038;4.640;2022-12-29T10:05:17;100121.34;;;7.72;89.25
67457;BME280;54319;52.038;4.640;2022-12-29T10:07:53;100249.09;;;8.51;88.89
67457;BME280;54319;52.038;4.640;2022-12-29T10:10:31;100055.81;;;7.41;88.67
67457;BME280;54319;52.038;4.640;2022-12-29T10:13:07;100261.38;;;8.67;88.12
67457;BME280;54319;52.038;4.640;2022-12-29T10:15:43;100082.72;;;7.56;88.37
67457;BME280;54319;52.038;4.640;2022-12-29T10:18:20;100273.72;;;8.76;88.16
67457;BME280;54319;52.038;4.640;2022-12-29T10:20:58;100269.91;;;8.84;87.93
67457;BME280;54319;52.038;4.640;2022-12-29T10:23:33;100206.84;;;8.42;87.36
67457;BME280;54319;52.038;4.640;2022-12-29T10:26:03;100245.31;;;8.59;87.04
67457;BME280;54319;52.038;4.640;2022-12-29T10:28:36;100297.94;;;8.85;86.73
67457;BME280;54319;52.038;4.640;2022-12-29T10:31:08;100305.06;;;8.86;87.08
67457;BME280;54319;52.038;4.640;2022-12-29T10:33:38;100214.19;;;8.28;86.94
67457;BME280;54319;52.038;4.640;2022-12-29T10:36:15;100309.22;;;8.95;86.83
67457;BME280;54319;52.038;4.640;2022-12-29T10:38:50;100186.22;;;8.20;86.25
67457;BME280;54319;52.038;4.640;2022-12-29T10:41:21;100262.47;;;8.52;86.14
67457;BME280;54319;52.038;4.640;2022-12-29T10:43:54;100331.59;;;8.97;86.09
67457;BME280;54319;52.038;4.640;2022-12-29T10:46:25;100327.19;;;8.96;85.88
67457;BME280;54319;52.038;4.640;2022-12-29T10:48:56;100293.38;;;8.72;86.09
67457;BME280;54319;52.038;4.640;2022-12-29T10:51:26;100299.38;;;8.87;85.85
67457;BME280;54319;52.038;4.640;2022-12-29T10:54:01;100322.09;;;9.20;84.91
67457;BME280;54319;52.038;4.640;2022-12-29T10:56:33;100157.56;;;8.24;84.38
67457;BME280;54319;52.038;4.640;2022-12-29T10:59:07;100180.91;;;8.59;82.43
67457;BME280;54319;52.038;4.640;2022-12-29T11:01:42;100324.34;;;9.68;81.46
67457;BME280;54319;52.038;4.640;2022-12-29T11:04:26;100201.09;;;8.77;81.38
67457;BME280;54319;52.038;4.640;2022-12-29T11:06:57;100252.69;;;8.97;81.66
67457;BME280;54319;52.038;4.640;2022-12-29T11:09:27;100219.72;;;8.80;81.93
67457;BME280;54319;52.038;4.640;2022-12-29T11:11:56;100362.78;;;9.85;82.02
67457;BME280;54319;52.038;4.640;2022-12-29T11:14:29;100299.75;;;9.50;81.60
67457;BME280;54319;52.038;4.640;2022-12-29T11:16:57;100337.25;;;9.80;82.19
67457;BME280;54319;52.038;4.640;2022-12-29T11:19:26;100365.13;;;10.14;79.92
67457;BME280;54319;52.038;4.640;2022-12-29T11:21:54;100373.91;;;10.16;79.44
67457;BME280;54319;52.038;4.640;2022-12-29T11:24:25;100287.75;;;9.58;79.23
67457;BME280;54319;52.038;4.640;2022-12-29T11:26:54;100398.41;;;9.84;79.48
67457;BME280;54319;52.038;4.640;2022-12-29T11:29:26;100393.06;;;9.70;79.53
67457;BME280;54319;52.038;4.640;2022-12-29T11:31:56;100348.44;;;9.33;80.22
67457;BME280;54319;52.038;4.640;2022-12-29T11:34:25;100395.47;;;9.47;81.60
67457;BME280;54319;52.038;4.640;2022-12-29T11:37:00;100383.13;;;9.44;81.53
67457;BME280;54319;52.038;4.640;2022-12-29T11:39:33;100251.41;;;8.34;82.65
67457;BME280;54319;52.038;4.640;2022-12-29T11:42:02;100260.38;;;8.54;81.98
67457;BME280;54319;52.038;4.640;2022-12-29T11:44:35;100403.25;;;9.36;82.31
67457;BME280;54319;52.038;4.640;2022-12-29T11:47:05;100385.56;;;9.14;80.92
67457;BME280;54319;52.038;4.640;2022-12-29T11:49:34;100408.50;;;9.31;80.34
67457;BME280;54319;52.038;4.640;2022-12-29T11:52:02;100273.78;;;8.49;80.21
67457;BME280;54319;52.038;4.640;2022-12-29T11:54:32;100415.38;;;9.40;80.07
67457;BME280;54319;52.038;4.640;2022-12-29T11:57:09;100374.44;;;9.22;78.18
67457;BME280;54319;52.038;4.640;2022-12-29T11:59:41;100269.59;;;8.53;77.83
67457;BME280;54319;52.038;4.640;2022-12-29T12:02:35;100337.69;;;8.92;78.41
67457;BME280;54319;52.038;4.640;2022-12-29T12:05:12;100419.59;;;9.36;79.03
67457;BME280;54319;52.038;4.640;2022-12-29T12:07:42;100381.38;;;9.11;79.98
67457;BME280;54319;52.038;4.640;2022-12-29T12:10:23;100376.53;;;9.13;80.85
67457;BME280;54319;52.038;4.640;2022-12-29T12:12:56;100244.94;;;8.28;80.57
67457;BME280;54319;52.038;4.640;2022-12-29T12:15:31;100252.28;;;8.21;81.49
67457;BME280;54319;52.038;4.640;2022-12-29T12:18:05;100326.63;;;8.74;80.63
67457;BME280;54319;52.038;4.640;2022-12-29T12:20:42;100374.44;;;9.08;80.67
67457;BME280;54319;52.038;4.640;2022-12-29T12:23:31;100371.09;;;9.06;79.92
67457;BME280;54319;52.038;4.640;2022-12-29T12:26:04;100283.38;;;8.59;79.05
67457;BME280;54319;52.038;4.640;2022-12-29T12:28:42;100275.03;;;8.53;79.16
67457;BME280;54319;52.038;4.640;2022-12-29T12:31:18;100423.72;;;9.52;78.73
67457;BME280;54319;52.038;4.640;2022-12-29T12:33:54;100433.75;;;9.59;78.42
67457;BME280;54319;52.038;4.640;2022-12-29T12:36:53;100456.78;;;9.63;78.46
67457;BME280;54319;52.038;4.640;2022-12-29T12:39:27;100449.22;;;9.65;76.79
67457;BME280;54319;52.038;4.640;2022-12-29T12:42:15;100249.94;;;8.51;77.26
67457;BME280;54319;52.038;4.640;2022-12-29T12:44:53;100241.56;;;8.39;75.78
67457;BME280;54319;52.038;4.640;2022-12-29T12:47:44;100297.59;;;8.67;76.43
67457;BME280;54319;52.038;4.640;2022-12-29T12:50:32;100294.25;;;8.45;75.62
67457;BME280;54319;52.038;4.640;2022-12-29T12:53:25;100459.09;;;9.59;76.94
67457;BME280;54319;52.038;4.640;2022-12-29T12:56:15;100357.78;;;8.78;77.38
67457;BME280;54319;52.038;4.640;2022-12-29T12:58:52;100480.28;;;9.57;77.96
67457;BME280;54319;52.038;4.640;2022-12-29T13:01:33;100388.72;;;9.10;78.36
67457;BME280;54319;52.038;4.640;2022-12-29T13:04:31;100296.53;;;8.62;78.85
67457;BME280;54319;52.038;4.640;2022-12-29T13:07:08;100148.50;;;7.58;78.30
67457;BME280;54319;52.038;4.640;2022-12-29T13:09:58;100451.63;;;9.34;78.45
67457;BME280;54319;52.038;4.640;2022-12-29T13:12:35;100309.94;;;8.57;78.03
67457;BME280;54319;52.038;4.640;2022-12-29T13:15:15;100277.13;;;8.24;78.05
67457;BME280;54319;52.038;4.640;2022-12-29T13:17:51;100406.28;;;9.01;78.07
67457;BME280;54319;52.038;4.640;2022-12-29T13:20:28;100454.09;;;9.56;78.40
67457;BME280;54319;52.038;4.640;2022-12-29T13:23:02;100466.66;;;9.57;78.58
67457;BME280;54319;52.038;4.640;2022-12-29T13:25:39;100392.66;;;9.15;78.01
67457;BME280;54319;52.038;4.640;2022-12-29T13:28:14;100438.41;;;9.45;79.01
67457;BME280;54319;52.038;4.640;2022-12-29T13:30:49;100430.22;;;9.45;78.59